createdAt,value
2018-07-22T00:02:11.979Z,23.73
2018-07-22T00:04:41.857Z,23.57
2018-07-22T00:07:12.159Z,23.56
2018-07-22T00:09:42.039Z,23.55
2018-07-22T00:12:12.352Z,23.56
2018-07-22T00:14:42.361Z,23.59
2018-07-22T00:17:12.241Z,23.53
2018-07-22T00:19:42.145Z,23.54
2018-07-22T00:22:12.048Z,23.58
2018-07-22T00:24:41.552Z,23.62
2018-07-22T00:27:11.618Z,23.53
2018-07-22T00:29:41.643Z,23.51
2018-07-22T00:32:11.841Z,23.39
2018-07-22T00:34:41.703Z,23.46
2018-07-22T00:37:11.602Z,23.58
2018-07-22T00:39:41.385Z,23.58
2018-07-22T00:42:11.336Z,23.59
2018-07-22T00:44:41.256Z,23.61
2018-07-22T00:47:11.397Z,23.51
2018-07-22T00:49:41.184Z,23.39
2018-07-22T00:52:10.969Z,23.39
2018-07-22T00:54:41.159Z,23.26
2018-07-22T00:57:10.865Z,23.27
2018-07-22T00:59:40.780Z,23.29
2018-07-22T01:02:10.646Z,23.29
2018-07-22T01:04:40.675Z,23.21
2018-07-22T01:07:10.629Z,23.02
2018-07-22T01:09:40.595Z,23.15
2018-07-22T01:12:10.517Z,23.24
2018-07-22T01:14:40.587Z,23.28
2018-07-22T01:17:10.781Z,23.24
2018-07-22T01:19:40.524Z,23.15
2018-07-22T01:22:10.299Z,23.08
2018-07-22T01:24:40.136Z,23.20
2018-07-22T01:27:09.946Z,23.33
2018-07-22T01:29:39.763Z,23.16
2018-07-22T01:32:10.115Z,23.15
2018-07-22T01:34:40.191Z,23.15
2018-07-22T01:37:10.325Z,23.11
2018-07-22T01:39:40.122Z,23.06
2018-07-22T01:42:09.976Z,22.98
2018-07-22T01:44:39.992Z,23.13
2018-07-22T01:47:09.828Z,22.94
2018-07-22T01:49:39.660Z,22.91
2018-07-22T01:52:09.769Z,22.87
2018-07-22T01:54:39.578Z,22.70
2018-07-22T01:57:09.553Z,22.61
2018-07-22T01:59:39.169Z,22.72
2018-07-22T02:02:09.172Z,22.64
2018-07-22T02:04:38.811Z,22.72
2018-07-22T02:07:09.408Z,22.63
2018-07-22T02:09:39.340Z,22.86
2018-07-22T02:12:09.174Z,22.70
2018-07-22T02:14:39.221Z,22.53
2018-07-22T02:17:09.257Z,22.55
2018-07-22T02:19:39.329Z,22.68
2018-07-22T02:22:09.272Z,22.67
2018-07-22T02:24:39.633Z,22.61
2018-07-22T02:27:09.962Z,22.60
2018-07-22T02:29:40.115Z,22.40
2018-07-22T02:32:09.937Z,22.41
2018-07-22T02:34:39.920Z,22.32
2018-07-22T02:37:09.907Z,22.30
2018-07-22T02:39:39.752Z,22.27
2018-07-22T02:42:09.870Z,22.05
2018-07-22T02:44:39.330Z,21.96
2018-07-22T02:47:09.178Z,21.93
2018-07-22T02:49:39.112Z,22.02
2018-07-22T02:52:09.141Z,21.86
2018-07-22T02:54:38.574Z,21.82
2018-07-22T02:57:09.475Z,21.82
2018-07-22T02:59:39.893Z,21.73
2018-07-22T03:02:10.041Z,21.82
2018-07-22T03:04:40.076Z,21.82
2018-07-22T03:07:09.885Z,21.75
2018-07-22T03:09:40.022Z,21.79
2018-07-22T03:12:09.889Z,21.96
2018-07-22T03:14:39.834Z,21.77
2018-07-22T03:17:11.702Z,21.73
2018-07-22T03:19:41.634Z,21.60
2018-07-22T03:22:11.563Z,21.41
2018-07-22T03:24:41.874Z,21.33
2018-07-22T03:27:11.985Z,21.31
2018-07-22T03:29:41.938Z,21.33
2018-07-22T03:32:12.331Z,21.32
2018-07-22T03:34:42.650Z,21.25
2018-07-22T03:37:12.738Z,21.28
2018-07-22T03:39:42.730Z,21.16
2018-07-22T03:42:12.722Z,21.11
2018-07-22T03:44:42.580Z,21.05
2018-07-22T03:47:12.040Z,21.20
2018-07-22T03:49:41.846Z,21.23
2018-07-22T03:52:11.898Z,21.22
2018-07-22T03:54:41.692Z,21.17
2018-07-22T03:57:11.770Z,21.14
2018-07-22T03:59:41.802Z,21.20
2018-07-22T04:02:12.367Z,21.11
2018-07-22T04:04:42.519Z,21.06
2018-07-22T04:07:12.965Z,21.13
2018-07-22T04:09:42.775Z,21.14
2018-07-22T04:12:12.887Z,21.13
2018-07-22T04:14:42.743Z,21.16
2018-07-22T04:17:12.880Z,21.22
2018-07-22T04:19:42.880Z,21.17
2018-07-22T04:22:13.166Z,21.30
2018-07-22T04:24:42.989Z,21.32
2018-07-22T04:27:13.020Z,21.31
2018-07-22T04:29:42.960Z,21.25
2018-07-22T04:32:12.991Z,21.22
2018-07-22T04:34:43.018Z,21.27
2018-07-22T04:37:12.981Z,21.41
2018-07-22T04:39:42.953Z,21.44
2018-07-22T04:42:13.323Z,21.34
2018-07-22T04:44:43.301Z,21.43
2018-07-22T04:47:13.208Z,21.50
2018-07-22T04:49:43.068Z,21.49
2018-07-22T04:52:13.002Z,21.45
2018-07-22T04:54:43.077Z,21.55
2018-07-22T04:57:12.557Z,21.66
2018-07-22T04:59:42.737Z,21.65
2018-07-22T05:02:12.829Z,21.70
2018-07-22T05:04:42.249Z,21.83
2018-07-22T05:07:12.707Z,21.87
2018-07-22T05:09:42.992Z,22.02
2018-07-22T05:12:12.704Z,21.94
2018-07-22T05:14:42.637Z,21.95
2018-07-22T05:17:12.951Z,22.02
2018-07-22T05:19:42.963Z,22.12
2018-07-22T05:22:13.220Z,22.26
2018-07-22T05:24:43.193Z,22.31
2018-07-22T05:27:12.953Z,22.32
2018-07-22T05:29:43.226Z,22.35
2018-07-22T05:32:13.015Z,22.47
2018-07-22T05:34:42.962Z,22.56
2018-07-22T05:37:13.084Z,22.83
2018-07-22T05:39:42.644Z,22.89
2018-07-22T05:42:13.643Z,22.87
2018-07-22T05:44:43.651Z,22.95
2018-07-22T05:47:13.502Z,23.01
2018-07-22T05:49:43.589Z,23.04
2018-07-22T05:52:14.777Z,23.10
2018-07-22T05:57:46.805Z,23.03
2018-07-22T06:00:16.871Z,23.12
2018-07-22T06:02:46.708Z,23.24
2018-07-22T06:07:34.895Z,23.42
2018-07-22T06:10:05.594Z,23.34
2018-07-22T06:12:35.763Z,23.30
2018-07-22T06:15:07.214Z,23.41
2018-07-22T06:17:36.907Z,23.59
2018-07-22T06:20:08.647Z,23.57
2018-07-22T06:22:38.731Z,23.63
2018-07-22T06:25:09.012Z,23.78
2018-07-22T06:27:38.952Z,23.66
2018-07-22T06:30:08.955Z,23.67
2018-07-22T06:32:38.415Z,23.65
2018-07-22T06:35:08.439Z,23.92
2018-07-22T06:37:38.364Z,23.87
2018-07-22T06:40:08.251Z,23.27
2018-07-22T06:42:38.079Z,23.28
2018-07-22T06:45:08.043Z,23.19
2018-07-22T06:47:38.137Z,23.23
2018-07-22T06:50:08.162Z,23.45
2018-07-22T06:52:37.899Z,23.61
2018-07-22T06:55:08.038Z,23.81
2018-07-22T06:57:38.119Z,23.82
2018-07-22T07:00:08.264Z,24.10
2018-07-22T07:02:38.209Z,24.08
2018-07-22T07:05:08.416Z,24.16
2018-07-22T07:07:38.418Z,24.35
2018-07-22T07:10:08.203Z,24.50
2018-07-22T07:12:38.401Z,24.80
2018-07-22T07:15:08.577Z,25.12
2018-07-22T07:17:38.562Z,24.87
2018-07-22T07:20:08.699Z,24.29
2018-07-22T07:22:38.919Z,23.99
2018-07-22T07:25:09.027Z,24.07
2018-07-22T07:27:39.967Z,24.10
2018-07-22T07:30:09.632Z,24.36
2018-07-22T07:32:39.825Z,24.54
2018-07-22T07:35:09.547Z,24.67
2018-07-22T07:37:39.524Z,24.85
2018-07-22T07:40:09.983Z,24.91
2018-07-22T07:42:40.058Z,25.08
2018-07-22T07:45:09.963Z,25.14
2018-07-22T07:47:39.931Z,25.35
2018-07-22T07:50:09.819Z,24.87
2018-07-22T07:52:39.263Z,24.88
2018-07-22T07:55:09.283Z,25.08
2018-07-22T07:57:39.377Z,24.99
2018-07-22T08:00:09.370Z,24.64
2018-07-22T08:02:39.212Z,24.67
2018-07-22T08:05:09.163Z,24.89
2018-07-22T08:07:39.103Z,25.13
2018-07-22T08:10:09.512Z,24.98
2018-07-22T08:12:39.346Z,25.10
2018-07-22T08:15:09.563Z,24.90
2018-07-22T08:17:39.645Z,25.10
2018-07-22T08:20:09.997Z,25.21
2018-07-22T08:22:39.816Z,25.45
2018-07-22T08:25:09.968Z,25.48
2018-07-22T08:27:39.962Z,25.24
2018-07-22T08:30:10.232Z,25.02
2018-07-22T08:32:40.389Z,25.20
2018-07-22T08:35:10.664Z,25.51
2018-07-22T08:37:40.690Z,25.63
2018-07-22T08:40:10.584Z,25.82
2018-07-22T08:42:40.924Z,25.95
2018-07-22T08:45:11.059Z,26.11
2018-07-22T08:47:41.056Z,26.20
2018-07-22T08:50:10.915Z,26.23
2018-07-22T08:52:40.714Z,26.26
2018-07-22T08:55:10.728Z,26.22
2018-07-22T08:57:40.722Z,26.09
2018-07-22T09:00:10.700Z,25.69
2018-07-22T09:02:40.608Z,25.80
2018-07-22T09:05:10.537Z,25.95
2018-07-22T09:07:40.503Z,26.12
2018-07-22T09:10:10.574Z,26.30
2018-07-22T09:12:40.719Z,26.23
2018-07-22T09:15:10.383Z,26.11
2018-07-22T09:17:40.271Z,26.20
2018-07-22T09:20:10.197Z,26.06
2018-07-22T09:22:40.054Z,25.85
2018-07-22T09:25:10.124Z,26.01
2018-07-22T09:27:40.232Z,26.18
2018-07-22T09:30:10.140Z,26.36
2018-07-22T09:32:40.052Z,26.49
2018-07-22T09:35:09.930Z,26.70
2018-07-22T09:37:40.033Z,26.60
2018-07-22T09:40:09.905Z,26.75
2018-07-22T09:42:39.737Z,26.69
2018-07-22T09:45:09.745Z,26.36
2018-07-22T09:47:39.902Z,26.18
2018-07-22T09:50:10.054Z,26.34
2018-07-22T09:52:39.915Z,26.18
2018-07-22T09:55:09.989Z,26.25
2018-07-22T09:57:39.479Z,26.23
2018-07-22T10:00:09.622Z,26.48
2018-07-22T10:02:39.469Z,26.38
2018-07-22T10:05:09.660Z,26.38
2018-07-22T10:07:39.400Z,26.56
2018-07-22T10:10:09.457Z,26.26
2018-07-22T10:12:39.434Z,26.26
2018-07-22T10:15:10.132Z,26.47
2018-07-22T10:17:40.551Z,26.63
2018-07-22T10:20:10.577Z,26.53
2018-07-22T10:22:40.416Z,26.71
2018-07-22T10:25:10.825Z,26.89
2018-07-22T10:27:41.348Z,26.95
2018-07-22T10:30:11.164Z,27.04
2018-07-22T10:32:41.380Z,27.15
2018-07-22T10:35:11.441Z,26.93
2018-07-22T10:37:41.407Z,26.82
2018-07-22T10:40:11.980Z,27.02
2018-07-22T10:42:42.477Z,27.22
2018-07-22T10:45:12.369Z,27.37
2018-07-22T10:47:42.328Z,27.49
2018-07-22T10:50:12.215Z,27.63
2018-07-22T10:52:42.245Z,27.66
2018-07-22T10:55:12.282Z,27.54
2018-07-22T10:57:42.331Z,27.60
2018-07-22T11:00:12.294Z,27.59
2018-07-22T11:02:42.252Z,27.58
2018-07-22T11:05:12.200Z,27.69
2018-07-22T11:07:42.328Z,27.87
2018-07-22T11:10:12.395Z,27.63
2018-07-22T11:12:42.984Z,27.64
2018-07-22T11:15:13.232Z,27.86
2018-07-22T11:17:42.902Z,28.07
2018-07-22T11:20:13.056Z,28.19
2018-07-22T11:22:43.136Z,28.42
2018-07-22T11:25:13.324Z,28.44
2018-07-22T11:27:43.248Z,27.61
2018-07-22T11:30:13.172Z,27.73
2018-07-22T11:32:43.163Z,27.47
2018-07-22T11:35:13.005Z,27.36
2018-07-22T11:37:42.952Z,27.17
2018-07-22T11:40:12.885Z,27.47
2018-07-22T11:42:42.971Z,27.73
2018-07-22T11:45:13.100Z,28.09
2018-07-22T11:47:45.976Z,28.28
2018-07-22T11:50:16.035Z,27.80
2018-07-22T11:52:46.008Z,27.95
2018-07-22T11:55:16.060Z,28.21
2018-07-22T11:57:45.557Z,28.53
2018-07-22T12:00:15.697Z,28.51
2018-07-22T12:02:45.608Z,28.59
2018-07-22T12:05:15.548Z,28.68
2018-07-22T12:07:45.536Z,28.79
2018-07-22T12:10:15.503Z,28.63
2018-07-22T12:12:45.584Z,28.95
2018-07-22T12:15:15.313Z,29.11
2018-07-22T12:17:45.253Z,29.34
2018-07-22T12:20:15.293Z,29.47
2018-07-22T12:22:45.313Z,29.12
2018-07-22T12:25:15.229Z,29.23
2018-07-22T12:27:45.444Z,29.01
2018-07-22T12:30:15.406Z,28.77
2018-07-22T12:32:45.493Z,28.61
2018-07-22T12:35:16.031Z,28.29
2018-07-22T12:37:45.499Z,28.27
2018-07-22T12:40:15.616Z,28.21
2018-07-22T12:42:45.842Z,28.20
2018-07-22T12:45:15.838Z,28.53
2018-07-22T12:47:45.752Z,28.84
2018-07-22T12:50:15.676Z,28.99
2018-07-22T12:52:45.505Z,29.14
2018-07-22T12:55:15.493Z,29.46
2018-07-22T12:57:45.511Z,29.81
2018-07-22T13:00:15.456Z,30.05
2018-07-22T13:02:45.620Z,30.13
2018-07-22T13:05:15.841Z,30.08
2018-07-22T13:07:45.472Z,30.32
2018-07-22T13:10:15.687Z,29.74
2018-07-22T13:12:45.671Z,29.77
2018-07-22T13:15:15.859Z,29.89
2018-07-22T13:17:45.684Z,30.24
2018-07-22T13:20:15.731Z,30.74
2018-07-22T13:22:45.684Z,30.73
2018-07-22T13:25:15.900Z,30.81
2018-07-22T13:27:46.041Z,30.78
2018-07-22T13:30:15.946Z,30.37
2018-07-22T13:32:45.804Z,29.85
2018-07-22T13:35:15.804Z,29.57
2018-07-22T13:37:45.762Z,29.52
2018-07-22T13:40:15.741Z,29.30
2018-07-22T13:42:45.729Z,29.17
2018-07-22T13:45:15.692Z,28.86
2018-07-22T13:47:45.913Z,28.79
2018-07-22T13:50:15.904Z,28.65
2018-07-22T13:52:46.000Z,28.57
2018-07-22T13:55:19.510Z,28.81
2018-07-22T13:57:52.954Z,28.49
2018-07-22T14:00:23.117Z,28.30
2018-07-22T14:02:57.277Z,28.28
2018-07-22T14:05:29.005Z,28.15
2018-07-22T14:08:02.085Z,28.10
2018-07-22T14:10:34.158Z,28.02
2018-07-22T14:13:04.329Z,28.09
2018-07-22T14:15:34.355Z,28.02
2018-07-22T14:18:08.513Z,28.00
2018-07-22T14:20:38.949Z,28.26
2018-07-22T14:23:11.891Z,28.39
2018-07-22T14:25:41.943Z,28.40
2018-07-22T14:28:12.949Z,28.41
2018-07-22T14:30:48.463Z,28.51
2018-07-22T14:33:21.874Z,28.65
2018-07-22T14:36:00.178Z,28.64
2018-07-22T14:38:30.647Z,28.55
2018-07-22T14:41:00.248Z,28.73
2018-07-22T14:43:30.335Z,28.70
2018-07-22T14:46:00.268Z,28.94
2018-07-22T14:48:30.179Z,29.21
2018-07-22T14:51:00.163Z,29.82
2018-07-22T14:53:30.364Z,30.48
2018-07-22T14:56:00.460Z,31.17
2018-07-22T14:58:29.953Z,31.89
2018-07-22T15:00:59.830Z,31.69
2018-07-22T15:03:29.971Z,31.07
2018-07-22T15:05:59.984Z,30.40
2018-07-22T15:08:29.904Z,30.14
2018-07-22T15:10:59.832Z,30.06
2018-07-22T15:13:29.756Z,30.13
2018-07-22T15:15:59.818Z,29.70
2018-07-22T15:18:29.882Z,29.53
2018-07-22T15:20:59.979Z,29.67
2018-07-22T15:23:30.109Z,29.83
2018-07-22T15:26:00.217Z,29.73
2018-07-22T15:28:30.241Z,29.38
2018-07-22T15:31:00.075Z,29.53
2018-07-22T15:33:30.212Z,29.25
2018-07-22T15:36:00.253Z,28.84
2018-07-22T15:38:30.302Z,28.53
2018-07-22T15:41:01.427Z,28.36
2018-07-22T15:43:31.500Z,28.32
2018-07-22T15:46:01.744Z,28.43
2018-07-22T15:48:31.353Z,28.45
2018-07-22T15:51:01.250Z,28.42
2018-07-22T15:53:30.924Z,28.33
2018-07-22T15:56:01.002Z,28.23
2018-07-22T15:58:31.065Z,28.20
2018-07-22T16:01:01.083Z,28.06
2018-07-22T16:03:31.192Z,27.88
2018-07-22T16:06:01.273Z,27.69
2018-07-22T16:08:31.234Z,27.82
2018-07-22T16:11:01.480Z,27.72
2018-07-22T16:13:31.428Z,27.79
2018-07-22T16:16:01.354Z,27.88
2018-07-22T16:18:31.366Z,27.84
2018-07-22T16:21:01.366Z,27.87
2018-07-22T16:23:31.331Z,27.94
2018-07-22T16:26:01.261Z,27.97
2018-07-22T16:28:31.263Z,27.98
2018-07-22T16:31:01.462Z,27.86
2018-07-22T16:33:31.365Z,27.84
2018-07-22T16:36:01.094Z,27.89
2018-07-22T16:38:31.032Z,28.09
2018-07-22T16:41:00.993Z,28.17
2018-07-22T16:43:31.169Z,28.27
2018-07-22T16:46:01.260Z,28.18
2018-07-22T16:48:31.272Z,28.03
2018-07-22T16:51:01.417Z,27.98
2018-07-22T16:53:31.888Z,27.89
2018-07-22T16:56:01.898Z,27.79
2018-07-22T16:58:31.948Z,27.79
2018-07-22T17:01:01.993Z,27.82
2018-07-22T17:03:31.852Z,27.85
2018-07-22T17:06:02.080Z,27.71
2018-07-22T17:08:32.000Z,27.70
2018-07-22T17:11:02.051Z,27.72
2018-07-22T17:13:32.060Z,27.66
2018-07-22T17:16:02.016Z,27.49
2018-07-22T17:18:32.025Z,27.52
2018-07-22T17:21:02.201Z,27.50
2018-07-22T17:23:32.117Z,27.62
2018-07-22T17:26:01.695Z,27.47
2018-07-22T17:28:31.686Z,27.35
2018-07-22T17:31:01.707Z,27.47
2018-07-22T17:33:31.595Z,27.55
2018-07-22T17:36:01.489Z,27.49
2018-07-22T17:38:30.931Z,27.67
2018-07-22T17:41:00.848Z,27.54
2018-07-22T17:43:31.329Z,27.67
2018-07-22T17:46:01.544Z,27.58
2018-07-22T17:48:31.860Z,27.58
2018-07-22T17:51:01.763Z,27.57
2018-07-22T17:53:31.868Z,27.68
2018-07-22T17:56:01.745Z,27.85
2018-07-22T17:58:31.321Z,28.23
2018-07-22T18:01:01.224Z,28.23
2018-07-22T18:03:32.496Z,28.15
2018-07-22T18:06:02.534Z,28.28
2018-07-22T18:08:32.576Z,28.13
2018-07-22T18:11:02.767Z,28.06
2018-07-22T18:13:32.222Z,27.95
2018-07-22T18:16:02.037Z,27.93
2018-07-22T18:18:32.328Z,27.87
2018-07-22T18:21:02.280Z,28.07
2018-07-22T18:23:32.428Z,28.07
2018-07-22T18:26:02.717Z,28.04
2018-07-22T18:28:32.625Z,28.03
2018-07-22T18:31:02.616Z,28.00
2018-07-22T18:33:32.546Z,27.86
2018-07-22T18:36:02.611Z,27.80
2018-07-22T18:38:33.090Z,27.81
2018-07-22T18:41:02.988Z,27.64
2018-07-22T18:43:32.486Z,27.68
2018-07-22T18:46:02.398Z,27.65
2018-07-22T18:48:32.677Z,27.60
2018-07-22T18:51:02.443Z,27.37
2018-07-22T18:53:32.495Z,27.34
2018-07-22T18:56:02.618Z,27.23
2018-07-22T18:58:32.973Z,27.12
2018-07-22T19:01:03.511Z,27.12
2018-07-22T19:03:33.841Z,27.16
2018-07-22T19:06:04.162Z,27.11
2018-07-22T19:08:34.416Z,27.00
2018-07-22T19:11:04.934Z,26.91
2018-07-22T19:13:35.126Z,26.91
2018-07-22T19:16:05.458Z,26.90
2018-07-22T19:18:35.687Z,26.82
2018-07-22T19:21:06.132Z,26.74
2018-07-22T19:23:36.344Z,26.77
2018-07-22T19:26:06.871Z,26.67
2018-07-22T19:28:37.114Z,26.61
2018-07-22T19:31:07.285Z,26.78
2018-07-22T19:33:37.382Z,26.66
2018-07-22T19:36:07.944Z,26.54
2018-07-22T19:38:38.261Z,26.40
2018-07-22T19:41:08.562Z,26.45
2018-07-22T19:43:38.914Z,26.28
2018-07-22T19:46:08.981Z,26.21
2018-07-22T19:48:39.282Z,26.23
2018-07-22T19:51:09.609Z,26.14
2018-07-22T19:53:39.943Z,25.90
2018-07-22T19:56:10.198Z,25.93
2018-07-22T19:58:40.686Z,25.82
2018-07-22T20:01:11.162Z,25.83
2018-07-22T20:03:41.494Z,25.79
2018-07-22T20:06:11.381Z,25.75
2018-07-22T20:08:41.801Z,25.84
2018-07-22T20:11:12.352Z,25.64
2018-07-22T20:13:42.889Z,25.70
2018-07-22T20:16:13.110Z,25.63
2018-07-22T20:18:43.376Z,25.70
2018-07-22T20:21:13.624Z,25.60
2018-07-22T20:23:44.162Z,25.54
2018-07-22T20:26:14.448Z,25.53
2018-07-22T20:28:44.041Z,25.44
2018-07-22T20:31:14.121Z,25.50
2018-07-22T20:33:44.364Z,25.46
2018-07-22T20:36:14.413Z,25.27
2018-07-22T20:38:44.607Z,25.43
2018-07-22T20:41:14.303Z,25.39
2018-07-22T20:43:44.416Z,25.21
2018-07-22T20:46:14.437Z,25.22
2018-07-22T20:48:44.656Z,25.22
2018-07-22T20:51:14.564Z,25.12
2018-07-22T20:53:44.744Z,25.05
2018-07-22T20:56:14.578Z,25.05
2018-07-22T20:58:44.689Z,25.14
2018-07-22T21:01:14.680Z,24.98
2018-07-22T21:03:44.631Z,24.87
2018-07-22T21:06:14.549Z,24.85
2018-07-22T21:08:44.413Z,24.95
2018-07-22T21:11:14.804Z,24.80
2018-07-22T21:13:44.233Z,24.71
2018-07-22T21:16:14.559Z,24.67
2018-07-22T21:18:44.488Z,24.71
2018-07-22T21:21:14.453Z,24.69
2018-07-22T21:23:44.384Z,24.63
2018-07-22T21:26:13.967Z,24.64
2018-07-22T21:28:44.154Z,24.63
2018-07-22T21:31:14.243Z,24.54
2018-07-22T21:33:44.201Z,24.50
2018-07-22T21:36:15.135Z,24.45
2018-07-22T21:38:45.225Z,24.40
2018-07-22T21:41:15.744Z,24.37
2018-07-22T21:43:45.507Z,24.37
2018-07-22T21:46:15.168Z,24.23
2018-07-22T21:48:44.935Z,24.26
2018-07-22T21:51:14.936Z,24.17
2018-07-22T21:53:44.868Z,24.27
2018-07-22T21:56:14.973Z,24.16
2018-07-22T21:58:45.027Z,24.05
2018-07-22T22:01:16.495Z,24.14
2018-07-22T22:03:48.879Z,24.09
2018-07-22T22:06:21.698Z,24.09
2018-07-22T22:08:51.870Z,24.09
2018-07-22T22:11:22.418Z,23.95
2018-07-22T22:13:52.743Z,23.97
2018-07-22T22:16:27.080Z,23.94
2018-07-22T22:18:57.640Z,23.93
2018-07-22T22:21:27.843Z,23.75
2018-07-22T22:23:57.884Z,23.72
2018-07-22T22:26:28.117Z,23.91
2018-07-22T22:28:57.988Z,23.74
2018-07-22T22:31:28.134Z,23.62
2018-07-22T22:33:58.104Z,23.62
2018-07-22T22:36:28.032Z,23.70
2018-07-22T22:38:57.957Z,23.64
2018-07-22T22:41:27.795Z,23.66
2018-07-22T22:43:57.878Z,23.66
2018-07-22T22:46:27.659Z,23.58
2018-07-22T22:48:57.779Z,23.52
2018-07-22T22:51:28.055Z,23.48
2018-07-22T22:53:57.936Z,23.44
2018-07-22T22:56:27.440Z,23.33
2018-07-22T22:59:14.073Z,23.21
2018-07-22T23:01:44.035Z,23.31
2018-07-22T23:04:14.070Z,23.22
2018-07-22T23:06:44.052Z,23.19
2018-07-22T23:09:15.334Z,23.13
2018-07-22T23:11:45.269Z,23.10
2018-07-22T23:14:15.284Z,23.10
2018-07-22T23:16:45.231Z,23.07
2018-07-22T23:19:15.188Z,23.14
2018-07-22T23:21:44.989Z,23.13
2018-07-22T23:24:14.934Z,23.20
2018-07-22T23:26:44.742Z,23.15
2018-07-22T23:29:14.739Z,23.17
2018-07-22T23:31:44.513Z,22.99
2018-07-22T23:34:14.386Z,23.11
2018-07-22T23:36:44.467Z,22.93
2018-07-22T23:39:14.441Z,22.96
2018-07-22T23:41:44.212Z,22.92
2018-07-22T23:44:14.184Z,22.92
2018-07-22T23:46:44.250Z,23.02
2018-07-22T23:49:14.169Z,23.01
2018-07-22T23:51:44.079Z,23.01
2018-07-22T23:54:13.952Z,22.83
2018-07-22T23:56:43.863Z,22.85
2018-07-22T23:59:13.955Z,22.77
